Flight Track Log - Related Links

Times and Time Zones

All times are in EDT time to prevent confusion due to time zone crossing. See the UAL252 flight status page for this flight to view local times or setup timezone preferences in your user account.

Time Position Orientation Groundspeed Altitude Reporting Facility
EDT Latitude Longitude Course Direction KTS MPH feet Rate Location/Type
Sat 07:53:10 AM 38.8833 -77.0667 218° Southwest 171 197 2,000  Level Potomac TRACON
Sat 07:54:10 AM 38.9333 -77.1167 322° Northwest 232 267 4,400 2,950 Climbing Potomac TRACON
Sat 07:55:00 AM 38.6586 -77.3933 234° Southwest  Level FlightAware Approximate
Sat 07:55:10 AM 38.9833 -77.1833 314° West 261 300 7,900  Level Potomac TRACON
Sat 07:56:00 AM 38.5995 -77.5181 247° West  Level FlightAware Approximate
Sat 07:56:04 AM 38.9833 -77.2500 270° West 279 321 9,600  Level Potomac TRACON
Sat 07:57:00 AM 38.5429 -77.6451 233° Southwest  Level FlightAware Approximate
Sat 07:57:10 AM 38.9000 -77.3333 218° Southwest 339 390 11,900  Level Potomac TRACON
Sat 07:58:00 AM 38.4729 -77.7604 218° Southwest  Level FlightAware Approximate
Sat 07:58:04 AM 38.8333 -77.4000 218° Southwest 358 412 14,500  Level Potomac TRACON
Sat 07:59:04 AM 38.7500 -77.4833 218° Southwest 377 434 16,800 2,271 Climbing Potomac TRACON
Sat 08:01:01 AM 38.5894 -77.6475 219° Southwest 397 457 21,200 2,124 Climbing Washington Center
Sat 08:02:02 AM 38.5022 -77.7381 219° Southwest 402 463 23,100 1,800 Climbing Washington Center
Sat 08:03:01 AM 38.4375 -77.8581 235° Southwest 402 463 24,800 1,550 Climbing Washington Center
Sat 08:04:02 AM 38.3767 -77.9806 238° Southwest 413 475 26,200 1,462 Climbing Washington Center
Sat 08:05:00 AM 38.3075 -78.1081 235° Southwest 431 496 27,700 908 Climbing Washington Center
Sat 08:06:01 AM 38.2422 -78.2356 237° Southwest 437 503 28,000 298 Climbing Washington Center
Sat 08:07:01 AM 38.1725 -78.3650 236° Southwest 437 503 28,300 700 Climbing Washington Center
Sat 08:08:01 AM 38.1108 -78.5000 240° Southwest 437 503 29,400 1,091 Climbing Washington Center
Sat 08:09:02 AM 38.0681 -78.6275 247° West 437 503 30,500 1,210 Climbing Washington Center
Sat 08:10:00 AM 38.0186 -78.7731 247° West 443 510 31,800 1,322 Climbing Washington Center
Sat 08:11:00 AM 37.9639 -78.9369 247° West 460 529 33,100 1,082 Climbing Washington Center
Sat 08:12:02 AM 37.9117 -79.0844 246° West 467 537 34,000 1,091 Climbing Washington Center
Sat 08:13:01 AM 37.8447 -79.2314 240° Southwest 473 544 35,300 1,160 Climbing Washington Center
Sat 08:14:01 AM 37.7825 -79.3572 238° Southwest 473 544 36,300 1,140 Climbing Washington Center
Sat 08:15:02 AM 37.7133 -79.4981 238° Southwest 478 550 37,600 843 Climbing Washington Center
Sat 08:16:02 AM 37.6356 -79.6461 236° Southwest 472 543 38,000 205 Climbing Washington Center
Sat 08:16:59 AM 37.5731 -79.7633 236° Southwest 461 531 38,000  Level Washington Center
Sat 08:18:56 AM 37.4319 -80.0431 238° Southwest 482 555 38,000  Level Atlanta Center
Sat 08:19:56 AM 37.3633 -80.1797 238° Southwest 474 545 38,000  Level Atlanta Center
Sat 08:20:56 AM 37.3022 -80.2925 236° Southwest 464 534 38,000  Level Atlanta Center
Sat 08:21:56 AM 37.2333 -80.4258 237° Southwest 464 534 38,000  Level Atlanta Center
Sat 08:22:56 AM 37.1661 -80.5567 237° Southwest 464 534 38,000  Level Atlanta Center
Sat 08:23:56 AM 37.0889 -80.7058 237° Southwest 464 534 38,000  Level Atlanta Center
Sat 08:24:56 AM 37.0236 -80.8358 238° Southwest 464 534 38,000  Level Atlanta Center
Sat 08:25:56 AM 36.9542 -80.9686 237° Southwest 464 534 38,000 -50 Level Atlanta Center
Sat 08:26:56 AM 36.8886 -81.0983 238° Southwest 459 528 37,900 -50 Descending Atlanta Center
Sat 08:27:56 AM 36.8286 -81.2172 238° Southwest 459 528 37,900 50 Level Atlanta Center
Sat 08:28:56 AM 36.7569 -81.3650 239° Southwest 459 528 38,000 50 Climbing Atlanta Center
Sat 08:29:56 AM 36.6889 -81.4992 238° Southwest 453 521 38,000  Level Atlanta Center
Sat 08:30:56 AM 36.6167 -81.6333 236° Southwest 467 537 38,000  Level Atlanta Center
Sat 08:31:56 AM 36.5461 -81.7672 237° Southwest 467 537 38,000  Level Atlanta Center
Sat 08:32:56 AM 36.4958 -81.8719 239° Southwest 467 537 38,000 -50 Level Atlanta Center
Sat 08:33:56 AM 36.4089 -82.0292 236° Southwest 467 537 37,900 -50 Descending Atlanta Center
Sat 08:34:56 AM 36.3400 -82.1597 237° Southwest 462 532 37,900 50 Level Atlanta Center
Sat 08:35:56 AM 36.2711 -82.2900 237° Southwest 462 532 38,000 50 Climbing Atlanta Center
Sat 08:36:56 AM 36.2000 -82.4256 237° Southwest 462 532 38,000  Level Atlanta Center
Sat 08:37:56 AM 36.1306 -82.5553 236° Southwest 462 532 38,000  Level Atlanta Center
Sat 08:38:56 AM 36.0653 -82.6772 237° Southwest 462 532 38,000  Level Atlanta Center
Sat 08:39:56 AM 35.9936 -82.8119 237° Southwest 467 537 38,000  Level Atlanta Center
Sat 08:40:56 AM 35.9219 -82.9439 236° Southwest 467 537 38,000  Level Atlanta Center
Sat 08:41:56 AM 35.8500 -83.0781 237° Southwest 467 537 38,000  Level Atlanta Center
Sat 08:42:56 AM 35.7800 -83.2094 237° Southwest 467 537 38,000  Level Atlanta Center
Sat 08:43:56 AM 35.7122 -83.3381 237° Southwest 461 531 38,000  Level Atlanta Center
Sat 08:44:56 AM 35.6397 -83.4689 236° Southwest 461 531 38,000 -350 Level Atlanta Center
Sat 08:45:56 AM 35.5672 -83.5972 235° Southwest 466 536 37,300 -900 Descending Atlanta Center
Sat 08:46:56 AM 35.4967 -83.7275 236° Southwest 461 531 36,200 -1,100 Descending Atlanta Center
Sat 08:47:56 AM 35.4281 -83.8528 236° Southwest 461 531 35,100 -600 Descending Atlanta Center
Sat 08:48:56 AM 35.3594 -83.9750 235° Southwest 455 524 35,000 -450 Descending Atlanta Center
Sat 08:49:56 AM 35.2928 -84.0947 236° Southwest 442 509 34,200 -500 Descending Atlanta Center
Sat 08:50:56 AM 35.2258 -84.2192 237° Southwest 442 509 34,000 -100 Descending Atlanta Center
Sat 08:51:56 AM 35.1567 -84.3386 235° Southwest 442 509 34,000  Level Atlanta Center
Sat 08:52:56 AM 35.0917 -84.4575 236° Southwest 442 509 34,000  Level Atlanta Center
Sat 08:53:56 AM 35.0203 -84.5814 235° Southwest 447 514 34,000  Level Atlanta Center
Sat 08:54:56 AM 34.9486 -84.7078 235° Southwest 452 520 34,000  Level Atlanta Center
Sat 08:55:56 AM 34.8811 -84.8289 236° Southwest 447 514 34,000 -50 Level Atlanta Center
Sat 08:56:56 AM 34.8094 -84.9544 235° Southwest 447 514 33,900 -50 Descending Atlanta Center
Sat 08:57:56 AM 34.7331 -85.0903 236° Southwest 447 514 33,900 50 Level Atlanta Center
Sat 08:58:56 AM 34.6611 -85.2156 235° Southwest 447 514 34,000 50 Climbing Atlanta Center
Sat 08:59:56 AM 34.5889 -85.3381 234° Southwest 447 514 34,000  Level Atlanta Center
Sat 09:00:56 AM 34.5164 -85.4631 235° Southwest 447 514 34,000  Level Atlanta Center
Sat 09:01:56 AM 34.4461 -85.5878 236° Southwest 452 520 34,000  Level Atlanta Center
Sat 09:02:56 AM 34.3819 -85.7025 236° Southwest 452 520 34,000  Level Atlanta Center
Sat 09:03:56 AM 34.3008 -85.8342 233° Southwest 452 520 34,000  Level Atlanta Center
Sat 09:04:56 AM 34.2281 -85.9558 234° Southwest 452 520 34,000  Level Atlanta Center
Sat 09:05:56 AM 34.1572 -86.0822 236° Southwest 452 520 34,000  Level Atlanta Center
Sat 09:06:56 AM 34.0819 -86.2058 234° Southwest 452 520 34,000  Level Atlanta Center
Sat 09:07:56 AM 34.0067 -86.3317 234° Southwest 458 527 34,000  Level Atlanta Center
Sat 09:08:56 AM 33.9333 -86.4550 234° Southwest 463 533 34,000  Level Atlanta Center
Sat 09:09:56 AM 33.8578 -86.5803 234° Southwest 463 533 34,000  Level Atlanta Center
Sat 09:10:56 AM 33.7908 -86.6933 235° Southwest 463 533 34,000  Level Atlanta Center
Sat 09:11:56 AM 33.7169 -86.8208 235° Southwest 463 533 34,000  Level Atlanta Center
Sat 09:12:56 AM 33.6472 -86.9483 237° Southwest 463 533 34,000  Level Atlanta Center
Sat 09:13:56 AM 33.5917 -87.0886 245° Southwest 463 533 34,000  Level Atlanta Center
Sat 09:14:56 AM 33.5381 -87.2214 244° Southwest 458 527 34,000  Level Atlanta Center
Sat 09:16:44 AM 33.4381 -87.4744 245° Southwest 464 534 34,000  Level Memphis Center
Sat 09:17:44 AM 33.3806 -87.6108 243° Southwest 464 534 34,000  Level Memphis Center
Sat 09:18:44 AM 33.3250 -87.7517 245° Southwest 464 534 34,000  Level Memphis Center
Sat 09:19:44 AM 33.2694 -87.8875 244° Southwest 464 534 34,000  Level Memphis Center
Sat 09:20:44 AM 33.2117 -88.0281 244° Southwest 464 534 34,000  Level Memphis Center
Sat 09:21:44 AM 33.1556 -88.1661 244° Southwest 470 541 34,000  Level Memphis Center
Sat 09:22:44 AM 33.1058 -88.3014 246° West 465 535 34,000  Level Memphis Center
Sat 09:23:44 AM 33.0475 -88.4364 243° Southwest 465 535 34,000  Level Memphis Center
Sat 09:24:44 AM 32.9931 -88.5714 244° Southwest 465 535 34,000  Level Memphis Center
Sat 09:25:44 AM 32.9344 -88.7089 243° Southwest 465 535 34,000  Level Memphis Center
Sat 09:26:44 AM 32.8756 -88.8458 243° Southwest 465 535 34,000  Level Memphis Center
Sat 09:27:44 AM 32.8186 -88.9778 243° Southwest 465 535 34,000  Level Memphis Center
Sat 09:28:44 AM 32.7617 -89.1147 244° Southwest 465 535 34,000  Level Memphis Center
Sat 09:29:44 AM 32.7044 -89.2489 243° Southwest 465 535 34,000  Level Memphis Center
Sat 09:30:44 AM 32.6450 -89.3878 243° Southwest 465 535 34,000  Level Memphis Center
Sat 09:31:44 AM 32.5856 -89.5214 242° Southwest 465 535 34,000  Level Memphis Center
Sat 09:32:44 AM 32.5281 -89.6550 243° Southwest 465 535 34,000  Level Memphis Center
Sat 09:33:44 AM 32.4703 -89.7911 243° Southwest 465 535 34,000  Level Memphis Center
Sat 09:34:44 AM 32.4103 -89.9267 242° Southwest 465 535 34,000  Level Memphis Center
Sat 09:35:44 AM 32.3542 -90.0597 243° Southwest 465 535 34,000  Level Memphis Center
Sat 09:36:44 AM 32.2961 -90.1928 243° Southwest 465 535 34,000  Level Memphis Center
Sat 09:37:44 AM 32.2378 -90.3253 243° Southwest 460 529 34,000 -34 Level Memphis Center
Sat 09:39:39 AM 32.1331 -90.5681 243° Southwest 454 522 33,900 -34 Descending Houston Center
Sat 09:40:40 AM 32.0742 -90.7011 242° Southwest 458 527 33,900 49 Level Houston Center
Sat 09:41:42 AM 32.0128 -90.8383 242° Southwest 456 525 34,000 49 Climbing Houston Center
Sat 09:42:43 AM 31.9444 -90.9958 243° Southwest 452 520 34,000  Level Houston Center
Sat 09:43:45 AM 31.8847 -91.1261 242° Southwest 454 522 34,000  Level Houston Center
Sat 09:44:46 AM 31.8264 -91.2564 242° Southwest 451 519 34,000  Level Houston Center
Sat 09:45:48 AM 31.7678 -91.3861 242° Southwest 450 518 34,000  Level Houston Center
Sat 09:46:49 AM 31.7083 -91.5167 242° Southwest 453 521 34,000  Level Houston Center
Sat 09:47:51 AM 31.6506 -91.6453 242° Southwest 448 516 34,000 -49 Level Houston Center
Sat 09:48:52 AM 31.5906 -91.7750 242° Southwest 452 520 33,900  Descending Houston Center
Sat 09:49:54 AM 31.5328 -91.9022 242° Southwest 446 513 34,000  Climbing Houston Center
Sat 09:50:56 AM 31.4689 -92.0411 242° Southwest 449 517 33,900 -49 Descending Houston Center
Sat 09:51:57 AM 31.4092 -92.1672 241° Southwest 444 511 33,900  Level Houston Center
Sat 09:52:59 AM 31.3497 -92.2964 242° Southwest 451 519 33,900  Level Houston Center
Sat 09:54:00 AM 31.2769 -92.4517 241° Southwest 458 527 33,900  Level Houston Center
Sat 09:55:02 AM 31.2117 -92.5783 239° Southwest 457 526 33,900  Level Houston Center
Sat 09:56:03 AM 31.1408 -92.7050 237° Southwest 464 534 33,900  Level Houston Center
Sat 09:57:05 AM 31.0706 -92.8303 237° Southwest 459 528 33,900 -829 Level Houston Center
Sat 09:58:06 AM 30.9997 -92.9583 237° Southwest 459 528 32,200 -1,707 Descending Houston Center
Sat 09:59:08 AM 30.9297 -93.0819 237° Southwest 470 541 30,400 -1,659 Descending Houston Center
Sat 10:00:09 AM 30.8589 -93.2072 237° Southwest 465 535 28,800 -1,756 Descending Houston Center
Sat 10:01:11 AM 30.7750 -93.3603 237° Southwest 468 539 26,800 -1,597 Descending Houston Center
Sat 10:02:13 AM 30.7036 -93.4853 236° Southwest 469 540 25,500 -1,463 Descending Houston Center
Sat 10:03:14 AM 30.6356 -93.6047 237° Southwest 456 525 23,800 -1,707 Descending Houston Center
Sat 10:04:16 AM 30.5700 -93.7172 236° Southwest 432 497 22,000 -1,805 Descending Houston Center
Sat 10:05:17 AM 30.5069 -93.8292 237° Southwest 421 484 20,100 -1,854 Descending Houston Center
Sat 10:06:19 AM 30.4450 -93.9367 236° Southwest 409 471 18,200 -2,000 Descending Houston Center
Sat 10:07:11 AM 30.3772 -94.0525 236° Southwest 401 461 16,300 -1,965 Descending Houston Center
Sat 10:08:12 AM 30.3200 -94.1522 236° Southwest 389 448 14,500 -1,805 Descending Houston Center
Sat 10:09:14 AM 30.2572 -94.2600 236° Southwest 376 433 12,600 -1,317 Descending Houston Center
Sat 10:10:15 AM 30.2025 -94.3639 239° Southwest 360 414 11,800 -1,293 Descending Houston Center
Sat 10:11:10 AM 30.1650 -94.4536 244° Southwest 340 391 10,100 -1,521 Descending Houston Center
Sat 10:11:26 AM 30.1606 -94.4689 251° West 343 395 10,000 -411 Descending Houston Center
Sat 10:12:23 AM 30.1178 -94.5708 244° Southwest 308 354 9,600 -792 Descending Houston Center
Sat 10:13:12 AM 30.0908 -94.6394 246° West 303 349 8,600 -1,091 Descending Houston Center
Sat 10:13:29 AM 30.0858 -94.6508 243° Southwest 306 352 8,400 -1,412 Descending Houston Center
Sat 10:14:20 AM 30.0561 -94.7381 249° West 280 322 7,000 -1,514 Descending Houston Center
Sat 10:15:20 AM 30.0306 -94.8211 250° West 280 322 5,600 -1,164 Descending Houston Center
Sat 10:16:34 AM 30.0022 -94.9181 251° West 271 312 4,400 -1,036 Descending Houston Center
Sat 10:17:10 AM 29.9839 -94.9717 248° West 266 306 3,700 -984 Descending Houston Center
Sat 10:17:35 AM 29.9772 -94.9983 254° West 266 306 3,400 -897 Descending Houston Center
Sat 10:18:37 AM 29.9783 -95.0806 271° West 259 298 2,400 -968 Descending Houston Center

Login

Don't have an account? Register now (free) for customized features, flight alerts, and more!